sensor_id;sensor_type;location;lat;lon;timestamp;P1;durP1;ratioP1;P2;durP2;ratioP2
27925;SDS011;15267;47.838;12.128;2024-01-30T00:01:07;32.72;;;19.17;;
27925;SDS011;15267;47.838;12.128;2024-01-30T00:03:33;34.42;;;20.50;;
27925;SDS011;15267;47.838;12.128;2024-01-30T00:05:59;36.30;;;21.33;;
27925;SDS011;15267;47.838;12.128;2024-01-30T00:08:25;33.65;;;20.92;;
27925;SDS011;15267;47.838;12.128;2024-01-30T00:10:51;34.28;;;20.95;;
27925;SDS011;15267;47.838;12.128;2024-01-30T00:13:17;33.55;;;20.23;;
27925;SDS011;15267;47.838;12.128;2024-01-30T00:15:44;34.30;;;21.20;;
27925;SDS011;15267;47.838;12.128;2024-01-30T00:18:10;36.90;;;20.92;;
27925;SDS011;15267;47.838;12.128;2024-01-30T00:20:36;30.98;;;19.52;;
27925;SDS011;15267;47.838;12.128;2024-01-30T00:23:03;30.92;;;18.20;;
27925;SDS011;15267;47.838;12.128;2024-01-30T00:25:29;34.47;;;20.55;;
27925;SDS011;15267;47.838;12.128;2024-01-30T00:27:55;27.70;;;18.48;;
27925;SDS011;15267;47.838;12.128;2024-01-30T00:30:21;30.73;;;18.73;;
27925;SDS011;15267;47.838;12.128;2024-01-30T00:32:47;30.50;;;17.83;;
27925;SDS011;15267;47.838;12.128;2024-01-30T00:35:13;30.35;;;18.45;;
27925;SDS011;15267;47.838;12.128;2024-01-30T00:37:39;28.25;;;17.88;;
27925;SDS011;15267;47.838;12.128;2024-01-30T00:40:05;25.85;;;16.48;;
27925;SDS011;15267;47.838;12.128;2024-01-30T00:42:31;28.48;;;17.85;;
27925;SDS011;15267;47.838;12.128;2024-01-30T00:44:57;26.10;;;16.50;;
27925;SDS011;15267;47.838;12.128;2024-01-30T00:47:23;24.98;;;15.68;;
27925;SDS011;15267;47.838;12.128;2024-01-30T00:49:49;25.77;;;15.48;;
27925;SDS011;15267;47.838;12.128;2024-01-30T00:52:15;24.27;;;15.95;;
27925;SDS011;15267;47.838;12.128;2024-01-30T00:54:41;25.90;;;15.10;;
27925;SDS011;15267;47.838;12.128;2024-01-30T00:57:08;22.65;;;14.23;;
27925;SDS011;15267;47.838;12.128;2024-01-30T00:59:34;25.05;;;13.25;;
27925;SDS011;15267;47.838;12.128;2024-01-30T01:02:00;21.77;;;12.98;;
27925;SDS011;15267;47.838;12.128;2024-01-30T01:04:26;23.88;;;13.43;;
27925;SDS011;15267;47.838;12.128;2024-01-30T01:06:53;21.02;;;12.57;;
27925;SDS011;15267;47.838;12.128;2024-01-30T01:09:19;25.75;;;12.95;;
27925;SDS011;15267;47.838;12.128;2024-01-30T01:11:44;24.65;;;13.45;;
27925;SDS011;15267;47.838;12.128;2024-01-30T01:14:10;21.83;;;13.23;;
27925;SDS011;15267;47.838;12.128;2024-01-30T01:16:36;22.58;;;13.25;;
27925;SDS011;15267;47.838;12.128;2024-01-30T01:19:02;20.90;;;12.05;;
27925;SDS011;15267;47.838;12.128;2024-01-30T01:21:28;17.90;;;12.05;;
27925;SDS011;15267;47.838;12.128;2024-01-30T01:23:54;19.25;;;12.68;;
27925;SDS011;15267;47.838;12.128;2024-01-30T01:26:20;17.83;;;11.88;;
27925;SDS011;15267;47.838;12.128;2024-01-30T01:28:46;17.70;;;11.38;;
27925;SDS011;15267;47.838;12.128;2024-01-30T01:31:13;18.52;;;11.32;;
27925;SDS011;15267;47.838;12.128;2024-01-30T01:33:39;16.85;;;10.70;;
27925;SDS011;15267;47.838;12.128;2024-01-30T01:36:05;19.15;;;11.35;;
27925;SDS011;15267;47.838;12.128;2024-01-30T01:38:31;16.67;;;11.00;;
27925;SDS011;15267;47.838;12.128;2024-01-30T01:40:57;17.10;;;11.80;;
27925;SDS011;15267;47.838;12.128;2024-01-30T01:43:23;16.40;;;11.05;;
27925;SDS011;15267;47.838;12.128;2024-01-30T01:45:49;16.73;;;10.25;;
27925;SDS011;15267;47.838;12.128;2024-01-30T01:48:15;17.30;;;10.85;;
27925;SDS011;15267;47.838;12.128;2024-01-30T01:50:41;15.85;;;9.73;;
27925;SDS011;15267;47.838;12.128;2024-01-30T01:53:08;15.63;;;10.75;;
27925;SDS011;15267;47.838;12.128;2024-01-30T01:55:34;14.73;;;10.45;;
27925;SDS011;15267;47.838;12.128;2024-01-30T01:58:00;15.95;;;10.27;;
27925;SDS011;15267;47.838;12.128;2024-01-30T02:00:27;16.63;;;10.30;;
27925;SDS011;15267;47.838;12.128;2024-01-30T02:02:53;16.77;;;10.05;;
27925;SDS011;15267;47.838;12.128;2024-01-30T02:05:20;16.83;;;9.88;;
27925;SDS011;15267;47.838;12.128;2024-01-30T02:07:46;16.80;;;9.90;;
27925;SDS011;15267;47.838;12.128;2024-01-30T02:10:13;15.00;;;9.98;;
27925;SDS011;15267;47.838;12.128;2024-01-30T02:12:39;15.70;;;9.80;;
27925;SDS011;15267;47.838;12.128;2024-01-30T02:15:05;14.68;;;10.32;;
27925;SDS011;15267;47.838;12.128;2024-01-30T02:17:32;17.13;;;10.05;;
27925;SDS011;15267;47.838;12.128;2024-01-30T02:19:59;15.65;;;10.18;;
27925;SDS011;15267;47.838;12.128;2024-01-30T02:22:25;15.27;;;9.73;;
27925;SDS011;15267;47.838;12.128;2024-01-30T02:24:51;15.82;;;10.40;;
27925;SDS011;15267;47.838;12.128;2024-01-30T02:27:17;14.43;;;9.80;;
27925;SDS011;15267;47.838;12.128;2024-01-30T02:29:43;16.38;;;10.30;;
27925;SDS011;15267;47.838;12.128;2024-01-30T02:32:08;15.10;;;9.63;;
27925;SDS011;15267;47.838;12.128;2024-01-30T02:34:34;16.40;;;10.02;;
27925;SDS011;15267;47.838;12.128;2024-01-30T02:37:00;15.35;;;9.85;;
27925;SDS011;15267;47.838;12.128;2024-01-30T02:39:26;14.77;;;9.73;;
27925;SDS011;15267;47.838;12.128;2024-01-30T02:41:52;17.38;;;10.60;;
27925;SDS011;15267;47.838;12.128;2024-01-30T02:44:19;19.42;;;10.18;;
27925;SDS011;15267;47.838;12.128;2024-01-30T02:46:45;15.35;;;10.15;;
27925;SDS011;15267;47.838;12.128;2024-01-30T02:49:11;16.20;;;10.13;;
27925;SDS011;15267;47.838;12.128;2024-01-30T02:51:37;16.30;;;10.63;;
27925;SDS011;15267;47.838;12.128;2024-01-30T02:54:03;14.95;;;10.27;;
27925;SDS011;15267;47.838;12.128;2024-01-30T02:56:29;17.15;;;10.40;;
27925;SDS011;15267;47.838;12.128;2024-01-30T02:58:55;16.83;;;10.27;;
27925;SDS011;15267;47.838;12.128;2024-01-30T03:01:21;16.60;;;10.32;;
27925;SDS011;15267;47.838;12.128;2024-01-30T03:03:49;16.80;;;10.25;;
27925;SDS011;15267;47.838;12.128;2024-01-30T03:06:15;15.18;;;10.05;;
27925;SDS011;15267;47.838;12.128;2024-01-30T03:08:42;18.85;;;10.27;;
27925;SDS011;15267;47.838;12.128;2024-01-30T03:11:08;16.48;;;10.27;;
27925;SDS011;15267;47.838;12.128;2024-01-30T03:13:34;14.70;;;9.50;;
27925;SDS011;15267;47.838;12.128;2024-01-30T03:16:00;18.02;;;10.27;;
27925;SDS011;15267;47.838;12.128;2024-01-30T03:18:26;16.77;;;10.38;;
27925;SDS011;15267;47.838;12.128;2024-01-30T03:20:52;16.60;;;10.10;;
27925;SDS011;15267;47.838;12.128;2024-01-30T03:23:18;15.48;;;9.57;;
27925;SDS011;15267;47.838;12.128;2024-01-30T03:25:44;16.40;;;9.65;;
27925;SDS011;15267;47.838;12.128;2024-01-30T03:28:10;22.45;;;9.90;;
27925;SDS011;15267;47.838;12.128;2024-01-30T03:30:36;14.43;;;9.25;;
27925;SDS011;15267;47.838;12.128;2024-01-30T03:33:02;17.67;;;10.88;;
27925;SDS011;15267;47.838;12.128;2024-01-30T03:35:28;17.95;;;11.27;;
27925;SDS011;15267;47.838;12.128;2024-01-30T03:37:53;20.63;;;12.02;;
27925;SDS011;15267;47.838;12.128;2024-01-30T03:40:19;22.02;;;12.85;;
27925;SDS011;15267;47.838;12.128;2024-01-30T03:42:45;23.13;;;13.07;;
27925;SDS011;15267;47.838;12.128;2024-01-30T03:45:11;21.55;;;12.65;;
27925;SDS011;15267;47.838;12.128;2024-01-30T03:47:37;22.20;;;13.40;;
27925;SDS011;15267;47.838;12.128;2024-01-30T03:50:03;20.13;;;12.82;;
27925;SDS011;15267;47.838;12.128;2024-01-30T03:52:29;18.15;;;12.32;;
27925;SDS011;15267;47.838;12.128;2024-01-30T03:54:55;19.77;;;11.98;;
27925;SDS011;15267;47.838;12.128;2024-01-30T03:57:21;19.83;;;11.95;;
27925;SDS011;15267;47.838;12.128;2024-01-30T03:59:47;18.00;;;11.90;;
27925;SDS011;15267;47.838;12.128;2024-01-30T04:02:13;17.00;;;11.27;;
27925;SDS011;15267;47.838;12.128;2024-01-30T04:04:39;19.45;;;10.55;;
27925;SDS011;15267;47.838;12.128;2024-01-30T04:07:05;20.17;;;10.65;;
27925;SDS011;15267;47.838;12.128;2024-01-30T04:09:31;18.30;;;10.10;;
27925;SDS011;15267;47.838;12.128;2024-01-30T04:11:57;17.63;;;11.10;;
27925;SDS011;15267;47.838;12.128;2024-01-30T04:14:23;19.77;;;10.57;;
27925;SDS011;15267;47.838;12.128;2024-01-30T04:16:49;17.38;;;10.90;;
27925;SDS011;15267;47.838;12.128;2024-01-30T04:19:15;17.15;;;10.55;;
27925;SDS011;15267;47.838;12.128;2024-01-30T04:21:41;16.40;;;10.43;;
27925;SDS011;15267;47.838;12.128;2024-01-30T04:24:07;17.13;;;10.85;;
27925;SDS011;15267;47.838;12.128;2024-01-30T04:26:33;17.17;;;10.35;;
27925;SDS011;15267;47.838;12.128;2024-01-30T04:28:59;18.00;;;10.48;;
27925;SDS011;15267;47.838;12.128;2024-01-30T04:31:25;16.77;;;10.10;;
27925;SDS011;15267;47.838;12.128;2024-01-30T04:33:50;16.20;;;9.82;;
27925;SDS011;15267;47.838;12.128;2024-01-30T04:36:16;15.85;;;10.13;;
27925;SDS011;15267;47.838;12.128;2024-01-30T04:38:42;15.55;;;9.75;;
27925;SDS011;15267;47.838;12.128;2024-01-30T04:41:08;14.27;;;9.50;;
27925;SDS011;15267;47.838;12.128;2024-01-30T04:43:34;16.60;;;9.75;;
27925;SDS011;15267;47.838;12.128;2024-01-30T04:46:00;17.17;;;9.40;;
27925;SDS011;15267;47.838;12.128;2024-01-30T04:48:27;16.85;;;9.27;;
27925;SDS011;15267;47.838;12.128;2024-01-30T04:50:53;13.82;;;9.40;;
27925;SDS011;15267;47.838;12.128;2024-01-30T04:53:19;15.70;;;9.38;;
27925;SDS011;15267;47.838;12.128;2024-01-30T04:55:45;17.67;;;10.50;;
27925;SDS011;15267;47.838;12.128;2024-01-30T04:58:11;15.50;;;9.65;;
27925;SDS011;15267;47.838;12.128;2024-01-30T05:00:37;16.13;;;9.82;;
27925;SDS011;15267;47.838;12.128;2024-01-30T05:03:03;17.63;;;9.82;;
27925;SDS011;15267;47.838;12.128;2024-01-30T05:05:29;18.20;;;10.82;;
27925;SDS011;15267;47.838;12.128;2024-01-30T05:07:55;13.77;;;9.50;;
27925;SDS011;15267;47.838;12.128;2024-01-30T05:10:20;18.48;;;10.73;;
27925;SDS011;15267;47.838;12.128;2024-01-30T05:12:46;17.98;;;10.25;;
27925;SDS011;15267;47.838;12.128;2024-01-30T05:15:12;16.27;;;10.48;;
27925;SDS011;15267;47.838;12.128;2024-01-30T05:17:38;14.60;;;10.52;;
27925;SDS011;15267;47.838;12.128;2024-01-30T05:20:04;18.73;;;11.15;;
27925;SDS011;15267;47.838;12.128;2024-01-30T05:22:31;18.20;;;10.77;;
27925;SDS011;15267;47.838;12.128;2024-01-30T05:24:57;17.05;;;10.75;;
27925;SDS011;15267;47.838;12.128;2024-01-30T05:27:23;22.50;;;11.45;;
27925;SDS011;15267;47.838;12.128;2024-01-30T05:29:48;15.60;;;10.07;;
27925;SDS011;15267;47.838;12.128;2024-01-30T05:32:14;18.67;;;10.98;;
27925;SDS011;15267;47.838;12.128;2024-01-30T05:34:40;15.85;;;10.15;;
27925;SDS011;15267;47.838;12.128;2024-01-30T05:37:06;16.05;;;9.90;;
27925;SDS011;15267;47.838;12.128;2024-01-30T05:39:32;16.73;;;10.13;;
27925;SDS011;15267;47.838;12.128;2024-01-30T05:41:58;13.93;;;9.50;;
27925;SDS011;15267;47.838;12.128;2024-01-30T05:44:25;15.90;;;9.93;;
27925;SDS011;15267;47.838;12.128;2024-01-30T05:46:50;16.17;;;10.90;;
27925;SDS011;15267;47.838;12.128;2024-01-30T05:49:16;16.90;;;10.05;;
27925;SDS011;15267;47.838;12.128;2024-01-30T05:51:42;16.75;;;9.80;;
27925;SDS011;15267;47.838;12.128;2024-01-30T05:54:08;14.90;;;9.80;;
27925;SDS011;15267;47.838;12.128;2024-01-30T05:56:34;15.32;;;9.82;;
27925;SDS011;15267;47.838;12.128;2024-01-30T05:59:00;15.00;;;9.40;;
27925;SDS011;15267;47.838;12.128;2024-01-30T06:01:26;19.55;;;10.00;;
27925;SDS011;15267;47.838;12.128;2024-01-30T06:03:52;16.33;;;9.95;;
27925;SDS011;15267;47.838;12.128;2024-01-30T06:06:18;19.38;;;10.70;;
27925;SDS011;15267;47.838;12.128;2024-01-30T06:08:44;22.80;;;12.02;;
27925;SDS011;15267;47.838;12.128;2024-01-30T06:11:10;23.17;;;14.60;;
27925;SDS011;15267;47.838;12.128;2024-01-30T06:13:37;21.88;;;13.95;;
27925;SDS011;15267;47.838;12.128;2024-01-30T06:16:03;20.17;;;13.30;;
27925;SDS011;15267;47.838;12.128;2024-01-30T06:18:29;19.33;;;12.52;;
27925;SDS011;15267;47.838;12.128;2024-01-30T06:20:56;19.27;;;12.88;;
27925;SDS011;15267;47.838;12.128;2024-01-30T06:23:22;24.23;;;13.38;;
27925;SDS011;15267;47.838;12.128;2024-01-30T06:25:48;21.73;;;14.15;;
27925;SDS011;15267;47.838;12.128;2024-01-30T06:28:14;21.30;;;13.07;;
27925;SDS011;15267;47.838;12.128;2024-01-30T06:30:39;18.10;;;12.27;;
27925;SDS011;15267;47.838;12.128;2024-01-30T06:33:05;19.10;;;12.75;;
27925;SDS011;15267;47.838;12.128;2024-01-30T06:35:31;18.83;;;12.38;;
27925;SDS011;15267;47.838;12.128;2024-01-30T06:37:57;18.83;;;12.73;;
27925;SDS011;15267;47.838;12.128;2024-01-30T06:40:23;20.63;;;12.05;;
27925;SDS011;15267;47.838;12.128;2024-01-30T06:42:49;20.48;;;12.80;;
27925;SDS011;15267;47.838;12.128;2024-01-30T06:45:15;21.52;;;13.35;;
27925;SDS011;15267;47.838;12.128;2024-01-30T06:47:41;46.53;;;32.17;;
27925;SDS011;15267;47.838;12.128;2024-01-30T06:50:07;38.33;;;25.70;;
27925;SDS011;15267;47.838;12.128;2024-01-30T06:52:33;24.15;;;14.52;;
27925;SDS011;15267;47.838;12.128;2024-01-30T06:54:59;23.20;;;14.05;;
27925;SDS011;15267;47.838;12.128;2024-01-30T06:57:25;22.35;;;14.43;;
27925;SDS011;15267;47.838;12.128;2024-01-30T06:59:53;18.63;;;13.02;;
27925;SDS011;15267;47.838;12.128;2024-01-30T07:02:18;18.65;;;12.13;;
27925;SDS011;15267;47.838;12.128;2024-01-30T07:04:44;24.10;;;15.10;;
27925;SDS011;15267;47.838;12.128;2024-01-30T07:07:10;22.13;;;13.52;;
27925;SDS011;15267;47.838;12.128;2024-01-30T07:09:38;22.27;;;13.57;;
27925;SDS011;15267;47.838;12.128;2024-01-30T07:12:04;26.05;;;18.58;;
27925;SDS011;15267;47.838;12.128;2024-01-30T07:14:31;27.77;;;16.98;;
27925;SDS011;15267;47.838;12.128;2024-01-30T07:16:57;20.73;;;15.18;;
27925;SDS011;15267;47.838;12.128;2024-01-30T07:19:22;24.20;;;14.57;;
27925;SDS011;15267;47.838;12.128;2024-01-30T07:21:48;21.55;;;13.82;;
27925;SDS011;15267;47.838;12.128;2024-01-30T07:24:14;21.15;;;13.18;;
27925;SDS011;15267;47.838;12.128;2024-01-30T07:26:40;20.80;;;13.00;;
27925;SDS011;15267;47.838;12.128;2024-01-30T07:29:06;21.23;;;13.13;;
27925;SDS011;15267;47.838;12.128;2024-01-30T07:31:32;28.27;;;13.80;;
27925;SDS011;15267;47.838;12.128;2024-01-30T07:33:58;23.73;;;15.82;;
27925;SDS011;15267;47.838;12.128;2024-01-30T07:36:24;30.77;;;18.13;;
27925;SDS011;15267;47.838;12.128;2024-01-30T07:38:51;30.00;;;17.63;;
27925;SDS011;15267;47.838;12.128;2024-01-30T07:41:19;29.83;;;14.90;;
27925;SDS011;15267;47.838;12.128;2024-01-30T07:43:45;21.83;;;13.02;;
27925;SDS011;15267;47.838;12.128;2024-01-30T07:46:11;26.67;;;13.90;;
27925;SDS011;15267;47.838;12.128;2024-01-30T07:48:37;9.15;;;4.88;;
27925;SDS011;15267;47.838;12.128;2024-01-30T07:51:02;13.93;;;9.27;;
27925;SDS011;15267;47.838;12.128;2024-01-30T07:53:29;20.65;;;13.88;;
27925;SDS011;15267;47.838;12.128;2024-01-30T07:55:54;21.15;;;13.45;;
27925;SDS011;15267;47.838;12.128;2024-01-30T07:58:20;24.80;;;13.13;;
27925;SDS011;15267;47.838;12.128;2024-01-30T08:00:48;23.13;;;13.00;;
27925;SDS011;15267;47.838;12.128;2024-01-30T08:03:16;25.83;;;13.45;;
27925;SDS011;15267;47.838;12.128;2024-01-30T08:05:43;24.45;;;13.40;;
27925;SDS011;15267;47.838;12.128;2024-01-30T08:08:09;29.88;;;14.25;;
27925;SDS011;15267;47.838;12.128;2024-01-30T08:10:35;25.08;;;15.05;;
27925;SDS011;15267;47.838;12.128;2024-01-30T08:13:01;28.00;;;17.05;;
27925;SDS011;15267;47.838;12.128;2024-01-30T08:15:27;25.45;;;16.05;;
27925;SDS011;15267;47.838;12.128;2024-01-30T08:17:53;24.65;;;15.30;;
27925;SDS011;15267;47.838;12.128;2024-01-30T08:20:23;23.42;;;13.60;;
27925;SDS011;15267;47.838;12.128;2024-01-30T08:22:48;18.63;;;13.23;;
27925;SDS011;15267;47.838;12.128;2024-01-30T08:25:14;23.88;;;15.40;;
27925;SDS011;15267;47.838;12.128;2024-01-30T08:27:40;25.90;;;15.63;;
27925;SDS011;15267;47.838;12.128;2024-01-30T08:30:07;23.25;;;14.88;;
27925;SDS011;15267;47.838;12.128;2024-01-30T08:32:33;40.50;;;27.75;;
27925;SDS011;15267;47.838;12.128;2024-01-30T08:34:59;45.78;;;30.02;;
27925;SDS011;15267;47.838;12.128;2024-01-30T08:37:28;26.02;;;15.93;;
27925;SDS011;15267;47.838;12.128;2024-01-30T08:39:54;25.98;;;15.05;;
27925;SDS011;15267;47.838;12.128;2024-01-30T08:42:20;29.23;;;17.02;;
27925;SDS011;15267;47.838;12.128;2024-01-30T08:44:50;23.58;;;15.10;;
27925;SDS011;15267;47.838;12.128;2024-01-30T08:47:17;18.77;;;12.23;;
27925;SDS011;15267;47.838;12.128;2024-01-30T08:49:43;27.45;;;18.52;;
27925;SDS011;15267;47.838;12.128;2024-01-30T08:52:10;27.20;;;17.65;;
27925;SDS011;15267;47.838;12.128;2024-01-30T08:54:36;27.85;;;17.30;;
27925;SDS011;15267;47.838;12.128;2024-01-30T08:57:02;29.08;;;18.40;;
27925;SDS011;15267;47.838;12.128;2024-01-30T08:59:29;26.88;;;15.60;;
27925;SDS011;15267;47.838;12.128;2024-01-30T09:01:55;23.50;;;15.55;;
27925;SDS011;15267;47.838;12.128;2024-01-30T09:04:23;25.25;;;14.18;;
27925;SDS011;15267;47.838;12.128;2024-01-30T09:06:49;22.92;;;13.25;;
27925;SDS011;15267;47.838;12.128;2024-01-30T09:09:15;19.83;;;13.68;;
27925;SDS011;15267;47.838;12.128;2024-01-30T09:11:41;25.50;;;13.95;;
27925;SDS011;15267;47.838;12.128;2024-01-30T09:14:07;23.17;;;13.27;;
27925;SDS011;15267;47.838;12.128;2024-01-30T09:16:33;31.98;;;16.25;;
27925;SDS011;15267;47.838;12.128;2024-01-30T09:18:59;27.83;;;15.02;;
27925;SDS011;15267;47.838;12.128;2024-01-30T09:21:25;27.75;;;14.98;;
27925;SDS011;15267;47.838;12.128;2024-01-30T09:23:53;27.40;;;14.70;;
27925;SDS011;15267;47.838;12.128;2024-01-30T09:26:20;28.10;;;15.30;;
27925;SDS011;15267;47.838;12.128;2024-01-30T09:28:46;25.02;;;15.13;;
27925;SDS011;15267;47.838;12.128;2024-01-30T09:31:12;25.50;;;14.52;;
27925;SDS011;15267;47.838;12.128;2024-01-30T09:33:38;23.63;;;13.10;;
27925;SDS011;15267;47.838;12.128;2024-01-30T09:36:06;17.92;;;12.02;;
27925;SDS011;15267;47.838;12.128;2024-01-30T09:38:33;16.55;;;11.85;;
27925;SDS011;15267;47.838;12.128;2024-01-30T09:40:59;19.52;;;12.55;;
27925;SDS011;15267;47.838;12.128;2024-01-30T09:43:27;16.00;;;11.10;;
27925;SDS011;15267;47.838;12.128;2024-01-30T09:45:56;16.52;;;11.02;;
27925;SDS011;15267;47.838;12.128;2024-01-30T09:48:23;13.23;;;9.65;;
27925;SDS011;15267;47.838;12.128;2024-01-30T09:50:49;11.05;;;7.93;;
27925;SDS011;15267;47.838;12.128;2024-01-30T09:53:15;11.48;;;7.95;;
27925;SDS011;15267;47.838;12.128;2024-01-30T09:55:42;15.27;;;7.43;;
27925;SDS011;15267;47.838;12.128;2024-01-30T09:58:09;11.13;;;7.85;;
27925;SDS011;15267;47.838;12.128;2024-01-30T10:00:35;15.57;;;8.25;;
27925;SDS011;15267;47.838;12.128;2024-01-30T10:03:04;9.98;;;7.38;;
27925;SDS011;15267;47.838;12.128;2024-01-30T10:05:30;13.15;;;7.75;;
27925;SDS011;15267;47.838;12.128;2024-01-30T10:08:00;11.65;;;7.60;;
27925;SDS011;15267;47.838;12.128;2024-01-30T10:10:26;12.23;;;8.27;;
27925;SDS011;15267;47.838;12.128;2024-01-30T10:12:52;10.05;;;7.28;;
27925;SDS011;15267;47.838;12.128;2024-01-30T10:15:21;12.35;;;7.88;;
27925;SDS011;15267;47.838;12.128;2024-01-30T10:17:47;9.30;;;6.45;;
27925;SDS011;15267;47.838;12.128;2024-01-30T10:20:13;8.43;;;6.45;;
27925;SDS011;15267;47.838;12.128;2024-01-30T10:22:40;9.32;;;6.63;;
27925;SDS011;15267;47.838;12.128;2024-01-30T10:25:09;13.93;;;8.32;;
27925;SDS011;15267;47.838;12.128;2024-01-30T10:27:36;11.93;;;7.03;;
27925;SDS011;15267;47.838;12.128;2024-01-30T10:30:01;10.88;;;7.60;;
27925;SDS011;15267;47.838;12.128;2024-01-30T10:32:29;13.48;;;7.53;;
27925;SDS011;15267;47.838;12.128;2024-01-30T10:34:55;13.35;;;6.90;;
27925;SDS011;15267;47.838;12.128;2024-01-30T10:37:21;11.00;;;6.70;;
27925;SDS011;15267;47.838;12.128;2024-01-30T10:39:49;10.82;;;6.72;;
27925;SDS011;15267;47.838;12.128;2024-01-30T10:42:17;10.45;;;6.72;;
27925;SDS011;15267;47.838;12.128;2024-01-30T10:44:44;8.63;;;6.53;;
27925;SDS011;15267;47.838;12.128;2024-01-30T10:47:14;9.18;;;7.03;;
27925;SDS011;15267;47.838;12.128;2024-01-30T10:49:41;8.48;;;6.38;;
27925;SDS011;15267;47.838;12.128;2024-01-30T10:52:08;10.95;;;7.03;;
27925;SDS011;15267;47.838;12.128;2024-01-30T10:54:34;9.95;;;6.65;;
27925;SDS011;15267;47.838;12.128;2024-01-30T10:57:00;12.27;;;7.00;;
27925;SDS011;15267;47.838;12.128;2024-01-30T10:59:28;8.98;;;6.53;;
27925;SDS011;15267;47.838;12.128;2024-01-30T11:01:56;9.48;;;5.57;;
27925;SDS011;15267;47.838;12.128;2024-01-30T11:04:22;7.30;;;5.00;;
27925;SDS011;15267;47.838;12.128;2024-01-30T11:06:49;9.63;;;6.53;;
27925;SDS011;15267;47.838;12.128;2024-01-30T11:09:16;12.30;;;6.78;;
27925;SDS011;15267;47.838;12.128;2024-01-30T11:11:49;9.35;;;6.45;;
27925;SDS011;15267;47.838;12.128;2024-01-30T11:14:15;11.37;;;6.50;;
27925;SDS011;15267;47.838;12.128;2024-01-30T11:16:42;9.00;;;6.22;;
27925;SDS011;15267;47.838;12.128;2024-01-30T11:19:11;9.57;;;6.43;;
27925;SDS011;15267;47.838;12.128;2024-01-30T11:21:43;9.93;;;6.15;;
27925;SDS011;15267;47.838;12.128;2024-01-30T11:24:09;10.93;;;6.57;;
27925;SDS011;15267;47.838;12.128;2024-01-30T11:26:35;10.60;;;6.47;;
27925;SDS011;15267;47.838;12.128;2024-01-30T11:29:07;9.65;;;6.70;;
27925;SDS011;15267;47.838;12.128;2024-01-30T11:31:34;11.57;;;6.50;;
27925;SDS011;15267;47.838;12.128;2024-01-30T11:34:00;12.40;;;6.28;;
27925;SDS011;15267;47.838;12.128;2024-01-30T11:36:26;12.40;;;6.28;;
27925;SDS011;15267;47.838;12.128;2024-01-30T11:38:52;12.15;;;6.88;;
27925;SDS011;15267;47.838;12.128;2024-01-30T11:41:18;8.18;;;5.82;;
27925;SDS011;15267;47.838;12.128;2024-01-30T11:43:51;11.63;;;6.75;;
27925;SDS011;15267;47.838;12.128;2024-01-30T11:46:17;14.18;;;6.80;;
27925;SDS011;15267;47.838;12.128;2024-01-30T11:48:43;9.82;;;6.32;;
27925;SDS011;15267;47.838;12.128;2024-01-30T11:51:09;9.10;;;6.53;;
27925;SDS011;15267;47.838;12.128;2024-01-30T11:53:35;13.05;;;6.80;;
27925;SDS011;15267;47.838;12.128;2024-01-30T11:56:01;12.13;;;6.95;;
27925;SDS011;15267;47.838;12.128;2024-01-30T11:58:28;15.05;;;9.20;;
27925;SDS011;15267;47.838;12.128;2024-01-30T12:00:55;16.65;;;7.13;;
27925;SDS011;15267;47.838;12.128;2024-01-30T12:03:21;10.75;;;6.47;;
27925;SDS011;15267;47.838;12.128;2024-01-30T12:05:47;11.38;;;6.50;;
27925;SDS011;15267;47.838;12.128;2024-01-30T12:08:20;13.32;;;6.40;;
27925;SDS011;15267;47.838;12.128;2024-01-30T12:10:46;11.50;;;6.32;;
27925;SDS011;15267;47.838;12.128;2024-01-30T12:13:12;13.95;;;6.57;;
27925;SDS011;15267;47.838;12.128;2024-01-30T12:15:38;15.93;;;6.88;;
27925;SDS011;15267;47.838;12.128;2024-01-30T12:18:07;9.43;;;6.53;;
27925;SDS011;15267;47.838;12.128;2024-01-30T12:20:33;13.40;;;6.75;;
27925;SDS011;15267;47.838;12.128;2024-01-30T12:22:59;11.05;;;6.40;;
27925;SDS011;15267;47.838;12.128;2024-01-30T12:25:25;10.05;;;5.72;;
27925;SDS011;15267;47.838;12.128;2024-01-30T12:27:51;13.18;;;5.75;;
27925;SDS011;15267;47.838;12.128;2024-01-30T12:30:19;10.32;;;5.85;;
27925;SDS011;15267;47.838;12.128;2024-01-30T12:32:46;8.98;;;6.15;;
27925;SDS011;15267;47.838;12.128;2024-01-30T12:35:13;10.05;;;6.50;;
27925;SDS011;15267;47.838;12.128;2024-01-30T12:37:39;10.80;;;6.03;;
27925;SDS011;15267;47.838;12.128;2024-01-30T12:40:06;10.93;;;6.10;;
27925;SDS011;15267;47.838;12.128;2024-01-30T12:42:33;10.93;;;6.05;;
27925;SDS011;15267;47.838;12.128;2024-01-30T12:44:59;11.55;;;6.32;;
27925;SDS011;15267;47.838;12.128;2024-01-30T12:47:25;9.45;;;6.38;;
27925;SDS011;15267;47.838;12.128;2024-01-30T12:49:51;10.85;;;5.97;;
27925;SDS011;15267;47.838;12.128;2024-01-30T12:52:20;10.43;;;6.55;;
27925;SDS011;15267;47.838;12.128;2024-01-30T12:54:47;11.10;;;6.35;;
27925;SDS011;15267;47.838;12.128;2024-01-30T12:57:13;11.07;;;6.50;;
27925;SDS011;15267;47.838;12.128;2024-01-30T12:59:39;13.73;;;6.50;;
27925;SDS011;15267;47.838;12.128;2024-01-30T13:02:05;9.35;;;6.78;;
27925;SDS011;15267;47.838;12.128;2024-01-30T13:04:31;10.45;;;6.57;;
27925;SDS011;15267;47.838;12.128;2024-01-30T13:06:57;10.85;;;6.47;;
27925;SDS011;15267;47.838;12.128;2024-01-30T13:09:23;11.73;;;7.30;;
27925;SDS011;15267;47.838;12.128;2024-01-30T13:11:49;10.93;;;6.35;;
27925;SDS011;15267;47.838;12.128;2024-01-30T13:14:16;11.05;;;7.07;;
27925;SDS011;15267;47.838;12.128;2024-01-30T13:16:42;13.95;;;7.25;;
27925;SDS011;15267;47.838;12.128;2024-01-30T13:19:08;10.40;;;6.65;;
27925;SDS011;15267;47.838;12.128;2024-01-30T13:21:34;10.13;;;6.53;;
27925;SDS011;15267;47.838;12.128;2024-01-30T13:24:00;9.27;;;6.10;;
27925;SDS011;15267;47.838;12.128;2024-01-30T13:26:26;9.35;;;5.35;;
27925;SDS011;15267;47.838;12.128;2024-01-30T13:28:52;11.07;;;5.47;;
27925;SDS011;15267;47.838;12.128;2024-01-30T13:31:18;9.15;;;5.03;;
27925;SDS011;15267;47.838;12.128;2024-01-30T13:33:44;11.07;;;4.68;;
27925;SDS011;15267;47.838;12.128;2024-01-30T13:36:11;8.65;;;5.28;;
27925;SDS011;15267;47.838;12.128;2024-01-30T13:38:37;7.78;;;4.60;;
27925;SDS011;15267;47.838;12.128;2024-01-30T13:41:04;6.63;;;4.68;;
27925;SDS011;15267;47.838;12.128;2024-01-30T13:43:30;5.97;;;4.55;;
27925;SDS011;15267;47.838;12.128;2024-01-30T13:45:56;7.20;;;4.40;;
27925;SDS011;15267;47.838;12.128;2024-01-30T13:48:22;7.35;;;5.22;;
27925;SDS011;15267;47.838;12.128;2024-01-30T13:50:48;12.60;;;4.60;;
27925;SDS011;15267;47.838;12.128;2024-01-30T13:53:14;9.88;;;4.80;;
27925;SDS011;15267;47.838;12.128;2024-01-30T13:55:40;7.13;;;5.13;;
27925;SDS011;15267;47.838;12.128;2024-01-30T13:58:06;6.55;;;4.57;;
27925;SDS011;15267;47.838;12.128;2024-01-30T14:00:32;9.30;;;4.60;;
27925;SDS011;15267;47.838;12.128;2024-01-30T14:02:58;6.45;;;4.75;;
27925;SDS011;15267;47.838;12.128;2024-01-30T14:05:25;10.23;;;4.72;;
27925;SDS011;15267;47.838;12.128;2024-01-30T14:07:52;8.63;;;4.57;;
27925;SDS011;15267;47.838;12.128;2024-01-30T14:10:18;10.57;;;4.57;;